sensor_id;sensor_type;location;lat;lon;timestamp;temperature;humidity
12015;DHT22;6066;48.138;16.402;2022-08-11T00:00:56;19.40;97.50
12015;DHT22;6066;48.138;16.402;2022-08-11T00:03:24;19.30;97.60
12015;DHT22;6066;48.138;16.402;2022-08-11T00:05:52;19.20;98.20
12015;DHT22;6066;48.138;16.402;2022-08-11T00:08:20;19.10;98.00
12015;DHT22;6066;48.138;16.402;2022-08-11T00:10:50;18.90;98.50
12015;DHT22;6066;48.138;16.402;2022-08-11T00:13:18;18.80;98.20
12015;DHT22;6066;48.138;16.402;2022-08-11T00:15:45;18.70;98.60
12015;DHT22;6066;48.138;16.402;2022-08-11T00:18:12;18.50;99.40
12015;DHT22;6066;48.138;16.402;2022-08-11T00:20:40;18.40;99.50
12015;DHT22;6066;48.138;16.402;2022-08-11T00:23:08;18.30;99.90
12015;DHT22;6066;48.138;16.402;2022-08-11T00:25:36;18.20;99.90
12015;DHT22;6066;48.138;16.402;2022-08-11T00:28:04;18.10;99.90
12015;DHT22;6066;48.138;16.402;2022-08-11T00:30:38;18.10;99.90
12015;DHT22;6066;48.138;16.402;2022-08-11T00:33:05;18.00;99.90
12015;DHT22;6066;48.138;16.402;2022-08-11T00:35:32;18.00;99.90
12015;DHT22;6066;48.138;16.402;2022-08-11T00:37:59;17.90;99.90
12015;DHT22;6066;48.138;16.402;2022-08-11T00:40:29;17.90;99.90
12015;DHT22;6066;48.138;16.402;2022-08-11T00:43:00;17.80;99.90
12015;DHT22;6066;48.138;16.402;2022-08-11T00:45:38;17.80;99.90
12015;DHT22;6066;48.138;16.402;2022-08-11T00:48:09;17.70;99.90
12015;DHT22;6066;48.138;16.402;2022-08-11T00:50:40;17.70;99.90
12015;DHT22;6066;48.138;16.402;2022-08-11T00:56:05;17.70;99.90
12015;DHT22;6066;48.138;16.402;2022-08-11T01:01:35;17.60;99.90
12015;DHT22;6066;48.138;16.402;2022-08-11T01:07:14;17.40;99.90
12015;DHT22;6066;48.138;16.402;2022-08-11T01:12:55;17.30;99.90
12015;DHT22;6066;48.138;16.402;2022-08-11T01:18:12;17.40;99.90
12015;DHT22;6066;48.138;16.402;2022-08-11T01:26:25;17.40;99.90
12015;DHT22;6066;48.138;16.402;2022-08-11T01:31:56;17.30;99.90
12015;DHT22;6066;48.138;16.402;2022-08-11T01:34:49;17.30;99.90
12015;DHT22;6066;48.138;16.402;2022-08-11T01:37:35;17.20;99.90
12015;DHT22;6066;48.138;16.402;2022-08-11T01:40:14;17.10;99.90
12015;DHT22;6066;48.138;16.402;2022-08-11T01:42:58;17.10;99.90
12015;DHT22;6066;48.138;16.402;2022-08-11T01:45:45;17.10;99.90
12015;DHT22;6066;48.138;16.402;2022-08-11T01:48:14;17.00;99.90
12015;DHT22;6066;48.138;16.402;2022-08-11T01:50:53;17.00;99.90
12015;DHT22;6066;48.138;16.402;2022-08-11T01:53:25;17.00;99.90
12015;DHT22;6066;48.138;16.402;2022-08-11T01:55:58;17.00;99.90
12015;DHT22;6066;48.138;16.402;2022-08-11T01:58:28;17.00;99.90
12015;DHT22;6066;48.138;16.402;2022-08-11T02:00:58;17.00;99.90
12015;DHT22;6066;48.138;16.402;2022-08-11T02:03:30;17.10;99.90
12015;DHT22;6066;48.138;16.402;2022-08-11T02:06:03;17.00;99.90
12015;DHT22;6066;48.138;16.402;2022-08-11T02:08:54;17.00;99.90
12015;DHT22;6066;48.138;16.402;2022-08-11T02:11:22;17.00;99.90
12015;DHT22;6066;48.138;16.402;2022-08-11T02:13:55;16.90;99.90
12015;DHT22;6066;48.138;16.402;2022-08-11T02:16:26;16.90;99.90
12015;DHT22;6066;48.138;16.402;2022-08-11T02:18:59;16.90;99.90
12015;DHT22;6066;48.138;16.402;2022-08-11T02:21:49;16.90;99.90
12015;DHT22;6066;48.138;16.402;2022-08-11T02:24:34;16.90;99.90
12015;DHT22;6066;48.138;16.402;2022-08-11T02:27:07;16.80;99.90
12015;DHT22;6066;48.138;16.402;2022-08-11T02:29:42;16.80;99.90
12015;DHT22;6066;48.138;16.402;2022-08-11T02:32:12;16.70;99.90
12015;DHT22;6066;48.138;16.402;2022-08-11T02:35:03;16.70;99.90
12015;DHT22;6066;48.138;16.402;2022-08-11T02:37:36;16.60;99.90
12015;DHT22;6066;48.138;16.402;2022-08-11T02:40:11;16.60;99.90
12015;DHT22;6066;48.138;16.402;2022-08-11T02:42:48;16.60;99.90
12015;DHT22;6066;48.138;16.402;2022-08-11T02:45:27;16.50;99.90
12015;DHT22;6066;48.138;16.402;2022-08-11T02:47:55;16.50;99.90
12015;DHT22;6066;48.138;16.402;2022-08-11T02:50:51;16.50;99.90
12015;DHT22;6066;48.138;16.402;2022-08-11T02:53:25;16.40;99.90
12015;DHT22;6066;48.138;16.402;2022-08-11T02:55:56;16.40;99.90
12015;DHT22;6066;48.138;16.402;2022-08-11T02:58:27;16.40;99.90
12015;DHT22;6066;48.138;16.402;2022-08-11T03:01:00;16.40;99.90
12015;DHT22;6066;48.138;16.402;2022-08-11T03:03:29;16.40;99.90
12015;DHT22;6066;48.138;16.402;2022-08-11T03:06:03;16.40;99.90
12015;DHT22;6066;48.138;16.402;2022-08-11T03:11:25;16.30;99.90
12015;DHT22;6066;48.138;16.402;2022-08-11T03:14:14;16.30;99.90
12015;DHT22;6066;48.138;16.402;2022-08-11T03:17:01;16.30;99.90
12015;DHT22;6066;48.138;16.402;2022-08-11T03:19:33;16.20;99.90
12015;DHT22;6066;48.138;16.402;2022-08-11T03:22:04;16.20;99.90
12015;DHT22;6066;48.138;16.402;2022-08-11T03:24:39;16.20;99.90
12015;DHT22;6066;48.138;16.402;2022-08-11T03:27:09;16.20;99.90
12015;DHT22;6066;48.138;16.402;2022-08-11T03:29:38;16.10;99.90
12015;DHT22;6066;48.138;16.402;2022-08-11T03:32:09;16.10;99.90
12015;DHT22;6066;48.138;16.402;2022-08-11T03:34:37;16.10;99.90
12015;DHT22;6066;48.138;16.402;2022-08-11T03:37:13;16.10;99.90
12015;DHT22;6066;48.138;16.402;2022-08-11T03:39:58;16.10;99.90
12015;DHT22;6066;48.138;16.402;2022-08-11T03:42:31;16.10;99.90
12015;DHT22;6066;48.138;16.402;2022-08-11T03:44:59;16.10;99.90
12015;DHT22;6066;48.138;16.402;2022-08-11T03:47:36;16.10;99.90
12015;DHT22;6066;48.138;16.402;2022-08-11T03:50:09;16.00;99.90
12015;DHT22;6066;48.138;16.402;2022-08-11T03:52:45;16.00;99.90
12015;DHT22;6066;48.138;16.402;2022-08-11T03:55:14;15.90;99.90
12015;DHT22;6066;48.138;16.402;2022-08-11T04:03:29;15.90;99.90
12015;DHT22;6066;48.138;16.402;2022-08-11T04:09:12;15.90;99.90
12015;DHT22;6066;48.138;16.402;2022-08-11T04:11:49;15.80;99.90
12015;DHT22;6066;48.138;16.402;2022-08-11T04:14:31;15.90;99.90
12015;DHT22;6066;48.138;16.402;2022-08-11T04:22:58;15.80;99.90
12015;DHT22;6066;48.138;16.402;2022-08-11T04:25:35;15.80;99.90
12015;DHT22;6066;48.138;16.402;2022-08-11T04:30:56;15.80;99.90
12015;DHT22;6066;48.138;16.402;2022-08-11T04:33:33;15.90;99.90
12015;DHT22;6066;48.138;16.402;2022-08-11T04:36:08;15.90;99.90
12015;DHT22;6066;48.138;16.402;2022-08-11T04:38:56;16.00;99.90
12015;DHT22;6066;48.138;16.402;2022-08-11T04:41:52;16.10;99.90
12015;DHT22;6066;48.138;16.402;2022-08-11T04:45:07;16.20;99.90
12015;DHT22;6066;48.138;16.402;2022-08-11T04:47:43;16.30;99.90
12015;DHT22;6066;48.138;16.402;2022-08-11T04:50:36;16.40;99.90
12015;DHT22;6066;48.138;16.402;2022-08-11T04:53:28;16.40;99.90
12015;DHT22;6066;48.138;16.402;2022-08-11T04:56:27;16.50;99.90
12015;DHT22;6066;48.138;16.402;2022-08-11T04:59:39;16.60;99.90
12015;DHT22;6066;48.138;16.402;2022-08-11T05:05:15;16.80;99.90
12015;DHT22;6066;48.138;16.402;2022-08-11T05:10:47;17.00;99.90
12015;DHT22;6066;48.138;16.402;2022-08-11T05:13:28;17.10;99.90
12015;DHT22;6066;48.138;16.402;2022-08-11T05:16:15;17.20;99.90
12015;DHT22;6066;48.138;16.402;2022-08-11T05:19:00;17.20;99.90
12015;DHT22;6066;48.138;16.402;2022-08-11T05:21:47;17.30;99.90
12015;DHT22;6066;48.138;16.402;2022-08-11T05:24:36;17.40;99.90
12015;DHT22;6066;48.138;16.402;2022-08-11T05:27:24;17.40;99.90
12015;DHT22;6066;48.138;16.402;2022-08-11T05:30:14;17.50;99.90
12015;DHT22;6066;48.138;16.402;2022-08-11T05:33:00;17.60;99.90
12015;DHT22;6066;48.138;16.402;2022-08-11T05:35:46;17.70;99.90
12015;DHT22;6066;48.138;16.402;2022-08-11T05:38:15;17.80;99.90
12015;DHT22;6066;48.138;16.402;2022-08-11T05:40:59;17.80;99.90
12015;DHT22;6066;48.138;16.402;2022-08-11T05:43:44;17.90;99.90
12015;DHT22;6066;48.138;16.402;2022-08-11T05:46:36;18.00;99.90
12015;DHT22;6066;48.138;16.402;2022-08-11T05:49:22;18.10;99.90
12015;DHT22;6066;48.138;16.402;2022-08-11T05:52:12;18.20;99.90
12015;DHT22;6066;48.138;16.402;2022-08-11T05:54:59;18.30;99.90
12015;DHT22;6066;48.138;16.402;2022-08-11T05:57:44;18.40;99.90
12015;DHT22;6066;48.138;16.402;2022-08-11T06:00:12;18.50;99.90
12015;DHT22;6066;48.138;16.402;2022-08-11T06:02:44;18.60;99.90
12015;DHT22;6066;48.138;16.402;2022-08-11T06:05:12;18.70;99.90
12015;DHT22;6066;48.138;16.402;2022-08-11T06:07:39;18.70;99.90
12015;DHT22;6066;48.138;16.402;2022-08-11T06:10:07;18.80;99.90
12015;DHT22;6066;48.138;16.402;2022-08-11T06:12:40;18.90;99.90
12015;DHT22;6066;48.138;16.402;2022-08-11T06:15:10;18.90;99.90
12015;DHT22;6066;48.138;16.402;2022-08-11T06:17:45;19.00;99.90
12015;DHT22;6066;48.138;16.402;2022-08-11T06:20:15;19.10;99.90
12015;DHT22;6066;48.138;16.402;2022-08-11T06:22:43;19.10;99.90
12015;DHT22;6066;48.138;16.402;2022-08-11T06:25:14;19.20;99.90
12015;DHT22;6066;48.138;16.402;2022-08-11T06:27:43;19.30;99.90
12015;DHT22;6066;48.138;16.402;2022-08-11T06:30:11;19.30;99.90
12015;DHT22;6066;48.138;16.402;2022-08-11T06:32:45;19.40;99.90
12015;DHT22;6066;48.138;16.402;2022-08-11T06:35:21;19.50;99.90
12015;DHT22;6066;48.138;16.402;2022-08-11T06:37:59;19.50;99.90
12015;DHT22;6066;48.138;16.402;2022-08-11T06:40:41;19.60;99.90
12015;DHT22;6066;48.138;16.402;2022-08-11T06:43:10;19.70;99.90
12015;DHT22;6066;48.138;16.402;2022-08-11T06:45:47;19.80;99.90
12015;DHT22;6066;48.138;16.402;2022-08-11T06:48:17;19.90;99.90
12015;DHT22;6066;48.138;16.402;2022-08-11T06:50:48;19.90;99.90
12015;DHT22;6066;48.138;16.402;2022-08-11T06:53:32;20.00;99.90
12015;DHT22;6066;48.138;16.402;2022-08-11T06:56:02;20.10;99.90
12015;DHT22;6066;48.138;16.402;2022-08-11T06:58:46;20.20;99.90
12015;DHT22;6066;48.138;16.402;2022-08-11T07:01:35;20.30;99.90
12015;DHT22;6066;48.138;16.402;2022-08-11T07:04:12;20.40;99.90
12015;DHT22;6066;48.138;16.402;2022-08-11T07:06:43;20.50;99.90
12015;DHT22;6066;48.138;16.402;2022-08-11T07:09:44;20.60;99.90
12015;DHT22;6066;48.138;16.402;2022-08-11T07:12:38;20.60;99.90
12015;DHT22;6066;48.138;16.402;2022-08-11T07:15:27;20.70;99.90
12015;DHT22;6066;48.138;16.402;2022-08-11T07:18:09;20.80;99.90
12015;DHT22;6066;48.138;16.402;2022-08-11T07:21:04;20.90;99.90
12015;DHT22;6066;48.138;16.402;2022-08-11T07:23:50;21.00;99.90
12015;DHT22;6066;48.138;16.402;2022-08-11T07:26:37;21.10;99.90
12015;DHT22;6066;48.138;16.402;2022-08-11T07:29:38;21.30;99.90
12015;DHT22;6066;48.138;16.402;2022-08-11T07:32:11;21.40;99.90
12015;DHT22;6066;48.138;16.402;2022-08-11T07:34:39;21.40;99.90
12015;DHT22;6066;48.138;16.402;2022-08-11T07:37:12;21.60;99.90
12015;DHT22;6066;48.138;16.402;2022-08-11T07:39:43;21.70;99.90
12015;DHT22;6066;48.138;16.402;2022-08-11T07:42:10;21.80;99.90
12015;DHT22;6066;48.138;16.402;2022-08-11T07:44:39;21.90;99.90
12015;DHT22;6066;48.138;16.402;2022-08-11T07:47:21;21.90;99.90
12015;DHT22;6066;48.138;16.402;2022-08-11T07:50:06;22.00;99.90
12015;DHT22;6066;48.138;16.402;2022-08-11T07:52:53;22.10;99.90
12015;DHT22;6066;48.138;16.402;2022-08-11T07:55:20;22.20;99.90
12015;DHT22;6066;48.138;16.402;2022-08-11T07:57:49;22.20;99.90
12015;DHT22;6066;48.138;16.402;2022-08-11T08:00:34;22.30;99.90
12015;DHT22;6066;48.138;16.402;2022-08-11T08:03:19;22.40;99.90
12015;DHT22;6066;48.138;16.402;2022-08-11T08:06:04;22.40;99.90
12015;DHT22;6066;48.138;16.402;2022-08-11T08:08:52;22.50;99.90
12015;DHT22;6066;48.138;16.402;2022-08-11T08:11:36;22.60;99.60
12015;DHT22;6066;48.138;16.402;2022-08-11T08:14:21;22.70;99.90
12015;DHT22;6066;48.138;16.402;2022-08-11T08:17:06;22.70;99.60
12015;DHT22;6066;48.138;16.402;2022-08-11T08:19:51;22.90;99.90
12015;DHT22;6066;48.138;16.402;2022-08-11T08:22:20;22.90;99.60
12015;DHT22;6066;48.138;16.402;2022-08-11T08:24:48;23.00;98.60
12015;DHT22;6066;48.138;16.402;2022-08-11T08:27:15;23.00;98.70
12015;DHT22;6066;48.138;16.402;2022-08-11T08:29:42;23.10;99.70
12015;DHT22;6066;48.138;16.402;2022-08-11T08:32:27;23.20;99.10
12015;DHT22;6066;48.138;16.402;2022-08-11T08:34:54;23.30;98.10
12015;DHT22;6066;48.138;16.402;2022-08-11T08:37:23;23.40;98.90
12015;DHT22;6066;48.138;16.402;2022-08-11T08:39:52;23.50;98.10
12015;DHT22;6066;48.138;16.402;2022-08-11T08:42:21;23.60;98.60
12015;DHT22;6066;48.138;16.402;2022-08-11T08:44:50;23.70;98.40
12015;DHT22;6066;48.138;16.402;2022-08-11T08:47:17;23.80;98.90
12015;DHT22;6066;48.138;16.402;2022-08-11T08:49:45;23.90;97.60
12015;DHT22;6066;48.138;16.402;2022-08-11T08:52:13;24.00;97.30
12015;DHT22;6066;48.138;16.402;2022-08-11T08:54:41;24.20;96.70
12015;DHT22;6066;48.138;16.402;2022-08-11T08:57:09;24.20;96.00
12015;DHT22;6066;48.138;16.402;2022-08-11T08:59:38;24.20;96.70
12015;DHT22;6066;48.138;16.402;2022-08-11T09:02:06;24.30;97.40
12015;DHT22;6066;48.138;16.402;2022-08-11T09:04:37;24.40;96.20
12015;DHT22;6066;48.138;16.402;2022-08-11T09:07:06;24.60;98.40
12015;DHT22;6066;48.138;16.402;2022-08-11T09:09:34;24.70;96.30
12015;DHT22;6066;48.138;16.402;2022-08-11T09:12:01;24.90;95.70
12015;DHT22;6066;48.138;16.402;2022-08-11T09:14:33;24.90;94.60
12015;DHT22;6066;48.138;16.402;2022-08-11T09:17:14;24.90;94.50
12015;DHT22;6066;48.138;16.402;2022-08-11T09:19:43;24.90;95.70
12015;DHT22;6066;48.138;16.402;2022-08-11T09:22:11;25.10;95.30
12015;DHT22;6066;48.138;16.402;2022-08-11T09:24:55;25.20;95.00
12015;DHT22;6066;48.138;16.402;2022-08-11T09:27:40;25.30;95.00
12015;DHT22;6066;48.138;16.402;2022-08-11T09:30:09;25.40;95.10
12015;DHT22;6066;48.138;16.402;2022-08-11T09:32:37;25.40;93.20
12015;DHT22;6066;48.138;16.402;2022-08-11T09:35:04;25.50;95.10
12015;DHT22;6066;48.138;16.402;2022-08-11T09:37:32;25.60;93.50
12015;DHT22;6066;48.138;16.402;2022-08-11T09:40:15;25.70;94.10
12015;DHT22;6066;48.138;16.402;2022-08-11T09:42:54;25.90;93.70
12015;DHT22;6066;48.138;16.402;2022-08-11T09:45:39;26.20;95.60
12015;DHT22;6066;48.138;16.402;2022-08-11T09:48:10;26.50;93.50
12015;DHT22;6066;48.138;16.402;2022-08-11T09:50:37;26.60;93.50
12015;DHT22;6066;48.138;16.402;2022-08-11T09:53:04;26.70;92.30
12015;DHT22;6066;48.138;16.402;2022-08-11T09:55:31;26.80;92.50
12015;DHT22;6066;48.138;16.402;2022-08-11T09:57:59;26.90;92.00
12015;DHT22;6066;48.138;16.402;2022-08-11T10:00:43;27.00;92.00
12015;DHT22;6066;48.138;16.402;2022-08-11T10:03:10;27.20;91.90
12015;DHT22;6066;48.138;16.402;2022-08-11T10:05:37;27.60;90.30
12015;DHT22;6066;48.138;16.402;2022-08-11T10:08:25;27.60;90.50
12015;DHT22;6066;48.138;16.402;2022-08-11T10:10:53;27.50;89.80
12015;DHT22;6066;48.138;16.402;2022-08-11T10:13:20;27.10;90.70
12015;DHT22;6066;48.138;16.402;2022-08-11T10:15:53;26.90;90.70
12015;DHT22;6066;48.138;16.402;2022-08-11T10:18:22;26.90;90.70
12015;DHT22;6066;48.138;16.402;2022-08-11T10:21:15;26.90;91.10
12015;DHT22;6066;48.138;16.402;2022-08-11T10:23:43;26.70;90.30
12015;DHT22;6066;48.138;16.402;2022-08-11T10:26:28;26.60;90.00
12015;DHT22;6066;48.138;16.402;2022-08-11T10:29:14;26.70;89.50
12015;DHT22;6066;48.138;16.402;2022-08-11T10:31:59;27.00;92.20
12015;DHT22;6066;48.138;16.402;2022-08-11T10:34:44;27.10;89.80
12015;DHT22;6066;48.138;16.402;2022-08-11T10:37:12;26.90;90.10
12015;DHT22;6066;48.138;16.402;2022-08-11T10:39:40;26.90;88.80
12015;DHT22;6066;48.138;16.402;2022-08-11T10:42:08;27.00;90.20
12015;DHT22;6066;48.138;16.402;2022-08-11T10:44:53;27.20;89.70
12015;DHT22;6066;48.138;16.402;2022-08-11T10:47:22;27.30;87.90
12015;DHT22;6066;48.138;16.402;2022-08-11T10:50:01;27.40;89.00
12015;DHT22;6066;48.138;16.402;2022-08-11T10:52:55;27.60;88.00
12015;DHT22;6066;48.138;16.402;2022-08-11T10:55:41;28.20;90.90
12015;DHT22;6066;48.138;16.402;2022-08-11T10:58:25;28.90;87.10
12015;DHT22;6066;48.138;16.402;2022-08-11T11:01:10;28.80;82.10
12015;DHT22;6066;48.138;16.402;2022-08-11T11:03:38;28.30;83.70
12015;DHT22;6066;48.138;16.402;2022-08-11T11:06:07;28.10;83.20
12015;DHT22;6066;48.138;16.402;2022-08-11T11:08:35;28.00;86.50
12015;DHT22;6066;48.138;16.402;2022-08-11T11:11:20;27.80;83.10
12015;DHT22;6066;48.138;16.402;2022-08-11T11:13:48;27.80;86.00
12015;DHT22;6066;48.138;16.402;2022-08-11T11:16:33;28.00;83.70
12015;DHT22;6066;48.138;16.402;2022-08-11T11:19:21;28.40;83.60
12015;DHT22;6066;48.138;16.402;2022-08-11T11:21:50;28.30;82.00
12015;DHT22;6066;48.138;16.402;2022-08-11T11:24:20;28.20;84.30
12015;DHT22;6066;48.138;16.402;2022-08-11T11:26:52;27.80;82.40
12015;DHT22;6066;48.138;16.402;2022-08-11T11:32:20;27.10;83.40
12015;DHT22;6066;48.138;16.402;2022-08-11T11:37:52;26.50;83.70
12015;DHT22;6066;48.138;16.402;2022-08-11T11:40:20;26.70;85.80
12015;DHT22;6066;48.138;16.402;2022-08-11T11:42:49;27.10;84.00
12015;DHT22;6066;48.138;16.402;2022-08-11T11:45:16;27.30;83.10
12015;DHT22;6066;48.138;16.402;2022-08-11T11:47:43;27.60;83.90
12015;DHT22;6066;48.138;16.402;2022-08-11T11:50:10;27.60;80.30
12015;DHT22;6066;48.138;16.402;2022-08-11T11:52:38;27.70;81.10
12015;DHT22;6066;48.138;16.402;2022-08-11T11:55:07;27.90;82.60
12015;DHT22;6066;48.138;16.402;2022-08-11T11:57:35;28.10;81.80
12015;DHT22;6066;48.138;16.402;2022-08-11T12:00:19;28.30;81.40
12015;DHT22;6066;48.138;16.402;2022-08-11T12:03:06;28.40;79.00
12015;DHT22;6066;48.138;16.402;2022-08-11T12:05:34;28.40;81.50
12015;DHT22;6066;48.138;16.402;2022-08-11T12:08:01;28.30;77.90
12015;DHT22;6066;48.138;16.402;2022-08-11T12:10:43;28.10;80.30
12015;DHT22;6066;48.138;16.402;2022-08-11T12:13:10;27.90;81.20
12015;DHT22;6066;48.138;16.402;2022-08-11T12:15:54;27.70;81.80
12015;DHT22;6066;48.138;16.402;2022-08-11T12:18:21;27.60;83.80
12015;DHT22;6066;48.138;16.402;2022-08-11T12:20:48;27.60;84.00
12015;DHT22;6066;48.138;16.402;2022-08-11T12:23:15;27.50;81.90
12015;DHT22;6066;48.138;16.402;2022-08-11T12:26:01;27.30;82.00
12015;DHT22;6066;48.138;16.402;2022-08-11T12:28:45;27.10;82.70
12015;DHT22;6066;48.138;16.402;2022-08-11T12:31:13;26.90;81.80
12015;DHT22;6066;48.138;16.402;2022-08-11T12:33:39;26.90;82.00
12015;DHT22;6066;48.138;16.402;2022-08-11T12:36:08;26.90;80.60
12015;DHT22;6066;48.138;16.402;2022-08-11T12:38:41;27.10;82.20
12015;DHT22;6066;48.138;16.402;2022-08-11T12:41:10;27.20;81.20
12015;DHT22;6066;48.138;16.402;2022-08-11T12:43:55;27.40;82.10
12015;DHT22;6066;48.138;16.402;2022-08-11T12:46:38;27.60;81.50
12015;DHT22;6066;48.138;16.402;2022-08-11T12:49:09;27.70;80.30
12015;DHT22;6066;48.138;16.402;2022-08-11T12:51:55;27.60;80.50
12015;DHT22;6066;48.138;16.402;2022-08-11T12:54:27;27.60;78.50
12015;DHT22;6066;48.138;16.402;2022-08-11T12:56:59;27.60;82.30
12015;DHT22;6066;48.138;16.402;2022-08-11T12:59:44;27.60;80.50
12015;DHT22;6066;48.138;16.402;2022-08-11T13:02:30;27.50;79.30
12015;DHT22;6066;48.138;16.402;2022-08-11T13:05:14;27.50;78.20
12015;DHT22;6066;48.138;16.402;2022-08-11T13:07:42;27.40;78.20
12015;DHT22;6066;48.138;16.402;2022-08-11T13:10:10;27.40;79.20
12015;DHT22;6066;48.138;16.402;2022-08-11T13:12:38;27.40;76.30
12015;DHT22;6066;48.138;16.402;2022-08-11T13:15:15;27.40;78.90
12015;DHT22;6066;48.138;16.402;2022-08-11T13:17:42;27.40;80.10
12015;DHT22;6066;48.138;16.402;2022-08-11T13:20:10;27.60;83.10
12015;DHT22;6066;48.138;16.402;2022-08-11T13:22:38;27.60;78.90
12015;DHT22;6066;48.138;16.402;2022-08-11T13:25:05;27.70;77.40
12015;DHT22;6066;48.138;16.402;2022-08-11T13:27:33;27.70;74.80
12015;DHT22;6066;48.138;16.402;2022-08-11T13:30:01;27.80;75.20
12015;DHT22;6066;48.138;16.402;2022-08-11T13:32:45;28.00;75.40
12015;DHT22;6066;48.138;16.402;2022-08-11T13:35:12;28.10;73.30
12015;DHT22;6066;48.138;16.402;2022-08-11T13:37:40;28.00;75.10
12015;DHT22;6066;48.138;16.402;2022-08-11T13:40:08;28.10;76.30
12015;DHT22;6066;48.138;16.402;2022-08-11T13:42:35;28.30;78.90
12015;DHT22;6066;48.138;16.402;2022-08-11T13:45:05;28.40;79.40
12015;DHT22;6066;48.138;16.402;2022-08-11T13:47:32;28.60;79.30
12015;DHT22;6066;48.138;16.402;2022-08-11T13:49:59;28.60;76.50
12015;DHT22;6066;48.138;16.402;2022-08-11T13:52:26;28.60;79.70
12015;DHT22;6066;48.138;16.402;2022-08-11T13:54:53;28.50;81.10
12015;DHT22;6066;48.138;16.402;2022-08-11T13:57:20;28.20;75.50
12015;DHT22;6066;48.138;16.402;2022-08-11T13:59:51;28.00;74.90
12015;DHT22;6066;48.138;16.402;2022-08-11T14:02:20;27.80;76.60
12015;DHT22;6066;48.138;16.402;2022-08-11T14:04:49;27.70;78.50
12015;DHT22;6066;48.138;16.402;2022-08-11T14:07:19;27.60;78.90
12015;DHT22;6066;48.138;16.402;2022-08-11T14:09:47;27.40;78.20
12015;DHT22;6066;48.138;16.402;2022-08-11T14:12:14;27.30;76.80
12015;DHT22;6066;48.138;16.402;2022-08-11T14:15:01;27.20;77.70
12015;DHT22;6066;48.138;16.402;2022-08-11T14:17:30;27.10;78.50
12015;DHT22;6066;48.138;16.402;2022-08-11T14:19:57;27.00;79.20
12015;DHT22;6066;48.138;16.402;2022-08-11T14:22:27;27.00;77.60
12015;DHT22;6066;48.138;16.402;2022-08-11T14:24:53;27.10;79.00
12015;DHT22;6066;48.138;16.402;2022-08-11T14:27:21;27.30;78.70
12015;DHT22;6066;48.138;16.402;2022-08-11T14:29:50;27.50;80.10
12015;DHT22;6066;48.138;16.402;2022-08-11T14:32:18;27.60;79.60
12015;DHT22;6066;48.138;16.402;2022-08-11T14:34:47;27.60;79.60
12015;DHT22;6066;48.138;16.402;2022-08-11T14:37:17;27.60;77.80
12015;DHT22;6066;48.138;16.402;2022-08-11T14:39:45;27.50;81.40
12015;DHT22;6066;48.138;16.402;2022-08-11T14:42:13;27.30;80.70
12015;DHT22;6066;48.138;16.402;2022-08-11T14:44:58;27.20;81.20
12015;DHT22;6066;48.138;16.402;2022-08-11T14:47:55;27.00;77.80
12015;DHT22;6066;48.138;16.402;2022-08-11T14:50:24;26.80;81.60
12015;DHT22;6066;48.138;16.402;2022-08-11T14:52:53;26.60;79.40
12015;DHT22;6066;48.138;16.402;2022-08-11T14:55:22;26.40;81.30
12015;DHT22;6066;48.138;16.402;2022-08-11T14:58:07;26.30;82.00
12015;DHT22;6066;48.138;16.402;2022-08-11T15:00:34;26.20;82.70
12015;DHT22;6066;48.138;16.402;2022-08-11T15:03:02;26.10;83.00
12015;DHT22;6066;48.138;16.402;2022-08-11T15:05:40;26.10;82.50
12015;DHT22;6066;48.138;16.402;2022-08-11T15:08:08;26.00;82.80
12015;DHT22;6066;48.138;16.402;2022-08-11T15:10:35;26.00;82.40
12015;DHT22;6066;48.138;16.402;2022-08-11T15:13:06;25.90;83.50
12015;DHT22;6066;48.138;16.402;2022-08-11T15:15:34;25.80;85.10
12015;DHT22;6066;48.138;16.402;2022-08-11T15:18:19;25.80;86.20
12015;DHT22;6066;48.138;16.402;2022-08-11T15:20:49;25.70;86.00
12015;DHT22;6066;48.138;16.402;2022-08-11T15:23:33;25.60;85.10
12015;DHT22;6066;48.138;16.402;2022-08-11T15:26:22;25.50;86.50
12015;DHT22;6066;48.138;16.402;2022-08-11T15:29:11;25.40;82.80
12015;DHT22;6066;48.138;16.402;2022-08-11T15:31:57;25.30;83.40
12015;DHT22;6066;48.138;16.402;2022-08-11T15:34:41;25.20;83.70
12015;DHT22;6066;48.138;16.402;2022-08-11T15:37:30;25.10;84.40
12015;DHT22;6066;48.138;16.402;2022-08-11T15:40:05;25.10;85.60
12015;DHT22;6066;48.138;16.402;2022-08-11T15:42:53;25.00;86.10
12015;DHT22;6066;48.138;16.402;2022-08-11T15:45:40;25.00;86.70
12015;DHT22;6066;48.138;16.402;2022-08-11T15:48:18;24.90;86.60
12015;DHT22;6066;48.138;16.402;2022-08-11T15:50:47;24.90;87.00
12015;DHT22;6066;48.138;16.402;2022-08-11T15:53:19;24.90;86.90
12015;DHT22;6066;48.138;16.402;2022-08-11T15:55:49;24.90;86.40
12015;DHT22;6066;48.138;16.402;2022-08-11T15:58:16;25.00;85.60
12015;DHT22;6066;48.138;16.402;2022-08-11T16:01:02;25.00;85.80
12015;DHT22;6066;48.138;16.402;2022-08-11T16:03:46;25.00;85.90
12015;DHT22;6066;48.138;16.402;2022-08-11T16:06:32;25.10;86.40
12015;DHT22;6066;48.138;16.402;2022-08-11T16:09:00;25.10;85.80
12015;DHT22;6066;48.138;16.402;2022-08-11T16:11:30;25.10;86.30
12015;DHT22;6066;48.138;16.402;2022-08-11T16:13:57;25.10;86.00
12015;DHT22;6066;48.138;16.402;2022-08-11T16:16:43;25.00;86.60
12015;DHT22;6066;48.138;16.402;2022-08-11T16:19:11;25.00;86.70
12015;DHT22;6066;48.138;16.402;2022-08-11T16:21:38;25.00;85.80
12015;DHT22;6066;48.138;16.402;2022-08-11T16:24:09;25.00;83.80
12015;DHT22;6066;48.138;16.402;2022-08-11T16:26:38;25.00;84.30
12015;DHT22;6066;48.138;16.402;2022-08-11T16:29:06;24.90;85.20
12015;DHT22;6066;48.138;16.402;2022-08-11T16:31:34;24.90;84.30
12015;DHT22;6066;48.138;16.402;2022-08-11T16:34:02;24.90;83.50
12015;DHT22;6066;48.138;16.402;2022-08-11T16:36:29;24.90;84.30
12015;DHT22;6066;48.138;16.402;2022-08-11T16:39:15;24.90;83.80
12015;DHT22;6066;48.138;16.402;2022-08-11T16:41:44;24.80;84.30
12015;DHT22;6066;48.138;16.402;2022-08-11T16:44:29;24.80;83.60
12015;DHT22;6066;48.138;16.402;2022-08-11T16:47:14;24.70;83.90
12015;DHT22;6066;48.138;16.402;2022-08-11T16:49:42;24.60;82.50
12015;DHT22;6066;48.138;16.402;2022-08-11T16:52:10;24.50;84.30
12015;DHT22;6066;48.138;16.402;2022-08-11T16:54:39;24.40;83.20
12015;DHT22;6066;48.138;16.402;2022-08-11T16:57:08;24.40;83.40
12015;DHT22;6066;48.138;16.402;2022-08-11T16:59:53;24.30;84.20
12015;DHT22;6066;48.138;16.402;2022-08-11T17:02:20;24.30;85.00
12015;DHT22;6066;48.138;16.402;2022-08-11T17:05:02;24.30;84.70
12015;DHT22;6066;48.138;16.402;2022-08-11T17:07:49;24.20;85.30
12015;DHT22;6066;48.138;16.402;2022-08-11T17:10:51;24.20;84.60
12015;DHT22;6066;48.138;16.402;2022-08-11T17:13:39;24.20;84.50
12015;DHT22;6066;48.138;16.402;2022-08-11T17:16:08;24.10;85.60